sensor_id;sensor_type;location;lat;lon;timestamp;pressure;altitude;pressure_sealevel;temperature;humidity
64668;BME280;51077;42.716;23.344;2023-03-25T00:02:14;95075.38;;;15.32;40.22
64668;BME280;51077;42.716;23.344;2023-03-25T00:04:40;95081.25;;;15.29;40.32
64668;BME280;51077;42.716;23.344;2023-03-25T00:07:05;95072.03;;;15.26;40.48
64668;BME280;51077;42.716;23.344;2023-03-25T00:09:31;95076.81;;;15.26;40.35
64668;BME280;51077;42.716;23.344;2023-03-25T00:11:57;95067.41;;;15.21;40.41
64668;BME280;51077;42.716;23.344;2023-03-25T00:14:22;95063.69;;;15.19;40.64
64668;BME280;51077;42.716;23.344;2023-03-25T00:16:49;95060.03;;;15.16;40.60
64668;BME280;51077;42.716;23.344;2023-03-25T00:19:17;95065.34;;;15.14;40.63
64668;BME280;51077;42.716;23.344;2023-03-25T00:21:48;95058.16;;;15.11;40.60
64668;BME280;51077;42.716;23.344;2023-03-25T00:24:16;95058.50;;;15.07;40.77
64668;BME280;51077;42.716;23.344;2023-03-25T00:26:46;95060.34;;;15.05;40.86
64668;BME280;51077;42.716;23.344;2023-03-25T00:29:15;95051.13;;;15.02;40.91
64668;BME280;51077;42.716;23.344;2023-03-25T00:31:41;95052.22;;;14.99;40.84
64668;BME280;51077;42.716;23.344;2023-03-25T00:34:07;95053.28;;;14.96;41.02
64668;BME280;51077;42.716;23.344;2023-03-25T00:36:35;95052.91;;;14.92;40.90
64668;BME280;51077;42.716;23.344;2023-03-25T00:39:06;95054.53;;;14.88;41.16
64668;BME280;51077;42.716;23.344;2023-03-25T00:41:32;95055.09;;;14.86;41.28
64668;BME280;51077;42.716;23.344;2023-03-25T00:44:00;95054.72;;;14.82;41.40
64668;BME280;51077;42.716;23.344;2023-03-25T00:46:29;95046.97;;;14.80;41.39
64668;BME280;51077;42.716;23.344;2023-03-25T00:48:55;95046.59;;;14.76;41.42
64668;BME280;51077;42.716;23.344;2023-03-25T00:51:22;95049.13;;;14.74;41.56
64668;BME280;51077;42.716;23.344;2023-03-25T00:53:53;95041.19;;;14.71;41.39
64668;BME280;51077;42.716;23.344;2023-03-25T00:56:20;95041.75;;;14.69;41.67
64668;BME280;51077;42.716;23.344;2023-03-25T00:58:45;95033.81;;;14.66;41.63
64668;BME280;51077;42.716;23.344;2023-03-25T01:01:16;95040.41;;;14.63;41.71
64668;BME280;51077;42.716;23.344;2023-03-25T01:03:43;95039.50;;;14.60;41.86
64668;BME280;51077;42.716;23.344;2023-03-25T01:06:12;95037.09;;;14.56;41.99
64668;BME280;51077;42.716;23.344;2023-03-25T01:08:38;95027.31;;;14.55;41.95
64668;BME280;51077;42.716;23.344;2023-03-25T01:11:05;95025.63;;;14.52;41.94
64668;BME280;51077;42.716;23.344;2023-03-25T01:13:31;95026.94;;;14.51;42.08
64668;BME280;51077;42.716;23.344;2023-03-25T01:15:56;95029.28;;;14.47;42.10
64668;BME280;51077;42.716;23.344;2023-03-25T01:18:22;95025.56;;;14.45;42.32
64668;BME280;51077;42.716;23.344;2023-03-25T01:20:48;95026.13;;;14.43;42.33
64668;BME280;51077;42.716;23.344;2023-03-25T01:23:13;95030.16;;;14.42;42.27
64668;BME280;51077;42.716;23.344;2023-03-25T01:25:39;95021.66;;;14.40;42.49
64668;BME280;51077;42.716;23.344;2023-03-25T01:28:04;95006.72;;;14.36;42.46
64668;BME280;51077;42.716;23.344;2023-03-25T01:30:30;95008.56;;;14.33;42.42
64668;BME280;51077;42.716;23.344;2023-03-25T01:32:56;95005.09;;;14.32;42.42
64668;BME280;51077;42.716;23.344;2023-03-25T01:35:21;95001.38;;;14.30;42.42
64668;BME280;51077;42.716;23.344;2023-03-25T01:37:47;95000.44;;;14.27;42.49
64668;BME280;51077;42.716;23.344;2023-03-25T01:40:18;94998.22;;;14.26;42.47
64668;BME280;51077;42.716;23.344;2023-03-25T01:42:45;94995.06;;;14.22;42.82
64668;BME280;51077;42.716;23.344;2023-03-25T01:47:51;94991.16;;;14.17;42.66
64668;BME280;51077;42.716;23.344;2023-03-25T01:50:19;94988.97;;;14.16;42.76
64668;BME280;51077;42.716;23.344;2023-03-25T01:52:48;94986.72;;;14.14;42.83
64668;BME280;51077;42.716;23.344;2023-03-25T01:55:16;94998.31;;;14.13;42.94
64668;BME280;51077;42.716;23.344;2023-03-25T01:57:42;94991.84;;;14.10;42.82
64668;BME280;51077;42.716;23.344;2023-03-25T02:00:12;95002.69;;;14.08;42.98
64668;BME280;51077;42.716;23.344;2023-03-25T02:02:38;95001.00;;;14.05;42.97
64668;BME280;51077;42.716;23.344;2023-03-25T02:05:14;94993.06;;;14.01;43.19
64668;BME280;51077;42.716;23.344;2023-03-25T02:07:44;94982.41;;;13.98;43.38
64668;BME280;51077;42.716;23.344;2023-03-25T02:10:13;94983.47;;;13.95;43.10
64668;BME280;51077;42.716;23.344;2023-03-25T02:12:38;94976.28;;;13.92;43.19
64668;BME280;51077;42.716;23.344;2023-03-25T02:15:06;94979.38;;;13.88;43.30
64668;BME280;51077;42.716;23.344;2023-03-25T02:17:48;94978.63;;;13.88;43.22
64668;BME280;51077;42.716;23.344;2023-03-25T02:28:53;94976.69;;;13.75;43.43
64668;BME280;51077;42.716;23.344;2023-03-25T02:36:52;94972.41;;;13.66;43.61
64668;BME280;51077;42.716;23.344;2023-03-25T02:42:21;94976.03;;;13.61;43.81
64668;BME280;51077;42.716;23.344;2023-03-25T02:47:19;94972.69;;;13.55;43.94
64668;BME280;51077;42.716;23.344;2023-03-25T02:49:55;94979.50;;;13.54;43.90
64668;BME280;51077;42.716;23.344;2023-03-25T02:52:38;94973.56;;;13.50;44.11
64668;BME280;51077;42.716;23.344;2023-03-25T02:55:07;94976.84;;;13.48;44.12
64668;BME280;51077;42.716;23.344;2023-03-25T02:57:38;94962.16;;;13.46;44.08
64668;BME280;51077;42.716;23.344;2023-03-25T03:00:07;94958.44;;;13.43;44.02
64668;BME280;51077;42.716;23.344;2023-03-25T03:02:46;94959.50;;;13.40;44.24
64668;BME280;51077;42.716;23.344;2023-03-25T03:05:22;94959.31;;;13.38;44.18
64668;BME280;51077;42.716;23.344;2023-03-25T03:07:54;94956.34;;;13.36;44.08
64668;BME280;51077;42.716;23.344;2023-03-25T03:10:45;94948.06;;;13.36;44.10
64668;BME280;51077;42.716;23.344;2023-03-25T03:24:37;94966.34;;;13.26;44.54
64668;BME280;51077;42.716;23.344;2023-03-25T03:27:27;94968.16;;;13.23;44.46
64668;BME280;51077;42.716;23.344;2023-03-25T03:35:51;94971.56;;;13.16;44.34
64668;BME280;51077;42.716;23.344;2023-03-25T03:38:23;94963.09;;;13.14;44.41
64668;BME280;51077;42.716;23.344;2023-03-25T03:40:54;94968.41;;;13.12;44.50
64668;BME280;51077;42.716;23.344;2023-03-25T03:43:51;94974.97;;;13.09;44.50
64668;BME280;51077;42.716;23.344;2023-03-25T03:46:57;94972.03;;;13.07;44.45
64668;BME280;51077;42.716;23.344;2023-03-25T03:49:17;94970.88;;;13.02;44.87
64668;BME280;51077;42.716;23.344;2023-03-25T03:51:51;94979.16;;;13.02;44.75
64668;BME280;51077;42.716;23.344;2023-03-25T03:54:26;94964.22;;;12.98;44.76
64668;BME280;51077;42.716;23.344;2023-03-25T03:56:54;94967.31;;;12.94;44.94
64668;BME280;51077;42.716;23.344;2023-03-25T03:59:26;94962.84;;;12.91;44.71
64668;BME280;51077;42.716;23.344;2023-03-25T04:02:00;94969.44;;;12.88;45.02
64668;BME280;51077;42.716;23.344;2023-03-25T04:04:27;94979.50;;;12.86;44.99
64668;BME280;51077;42.716;23.344;2023-03-25T04:07:11;94979.84;;;12.82;45.16
64668;BME280;51077;42.716;23.344;2023-03-25T04:09:46;94980.91;;;12.79;45.12
64668;BME280;51077;42.716;23.344;2023-03-25T04:12:29;94975.19;;;12.77;45.12
64668;BME280;51077;42.716;23.344;2023-03-25T04:15:00;94972.97;;;12.75;45.17
64668;BME280;51077;42.716;23.344;2023-03-25T04:17:25;94970.75;;;12.74;45.20
64668;BME280;51077;42.716;23.344;2023-03-25T04:19:57;94972.75;;;12.73;45.24
64668;BME280;51077;42.716;23.344;2023-03-25T04:22:23;94981.56;;;12.72;45.11
64668;BME280;51077;42.716;23.344;2023-03-25T04:24:49;94971.81;;;12.71;45.23
64668;BME280;51077;42.716;23.344;2023-03-25T04:27:16;94966.28;;;12.71;45.22
64668;BME280;51077;42.716;23.344;2023-03-25T04:29:43;94973.81;;;12.70;45.16
64668;BME280;51077;42.716;23.344;2023-03-25T04:32:10;94974.03;;;12.72;45.21
64668;BME280;51077;42.716;23.344;2023-03-25T04:34:35;94969.47;;;12.75;45.07
64668;BME280;51077;42.716;23.344;2023-03-25T04:37:01;94975.38;;;12.79;45.26
64668;BME280;51077;42.716;23.344;2023-03-25T04:39:27;94976.03;;;12.85;45.02
64668;BME280;51077;42.716;23.344;2023-03-25T04:41:54;94977.47;;;12.99;45.59
64668;BME280;51077;42.716;23.344;2023-03-25T04:44:26;94979.69;;;13.22;55.55
64668;BME280;51077;42.716;23.344;2023-03-25T04:46:53;94978.72;;;13.53;58.21
64668;BME280;51077;42.716;23.344;2023-03-25T04:49:21;94974.69;;;13.75;57.08
64668;BME280;51077;42.716;23.344;2023-03-25T04:51:51;94973.06;;;13.80;51.25
64668;BME280;51077;42.716;23.344;2023-03-25T04:54:18;94978.44;;;13.86;50.67
64668;BME280;51077;42.716;23.344;2023-03-25T04:56:43;94977.34;;;13.89;49.96
64668;BME280;51077;42.716;23.344;2023-03-25T04:59:11;94977.34;;;13.89;48.91
64668;BME280;51077;42.716;23.344;2023-03-25T05:01:38;94982.13;;;13.88;47.98
64668;BME280;51077;42.716;23.344;2023-03-25T05:04:08;94982.28;;;13.82;47.43
64668;BME280;51077;42.716;23.344;2023-03-25T05:06:41;94988.13;;;13.79;46.85
64668;BME280;51077;42.716;23.344;2023-03-25T05:09:09;94986.25;;;13.74;46.46
64668;BME280;51077;42.716;23.344;2023-03-25T05:11:36;94983.31;;;13.72;46.36
64668;BME280;51077;42.716;23.344;2023-03-25T05:14:04;94994.34;;;13.72;45.98
64668;BME280;51077;42.716;23.344;2023-03-25T05:16:30;94989.56;;;13.72;46.09
64668;BME280;51077;42.716;23.344;2023-03-25T05:18:55;94984.78;;;13.73;45.79
64668;BME280;51077;42.716;23.344;2023-03-25T05:21:21;94990.50;;;13.75;45.72
64668;BME280;51077;42.716;23.344;2023-03-25T05:23:46;94980.41;;;13.77;45.52
64668;BME280;51077;42.716;23.344;2023-03-25T05:26:12;94983.75;;;13.83;45.45
64668;BME280;51077;42.716;23.344;2023-03-25T05:28:38;94982.34;;;13.90;45.44
64668;BME280;51077;42.716;23.344;2023-03-25T05:31:04;94978.69;;;13.95;45.25
64668;BME280;51077;42.716;23.344;2023-03-25T05:33:37;94992.00;;;14.04;44.82
64668;BME280;51077;42.716;23.344;2023-03-25T05:36:16;94983.22;;;14.14;44.78
64668;BME280;51077;42.716;23.344;2023-03-25T05:38:42;94985.50;;;14.23;44.62
64668;BME280;51077;42.716;23.344;2023-03-25T05:41:11;94987.22;;;14.33;44.44
64668;BME280;51077;42.716;23.344;2023-03-25T05:43:41;94993.53;;;14.42;44.26
64668;BME280;51077;42.716;23.344;2023-03-25T05:46:10;94992.50;;;14.52;44.04
64668;BME280;51077;42.716;23.344;2023-03-25T05:48:36;94995.69;;;14.64;43.93
64668;BME280;51077;42.716;23.344;2023-03-25T05:51:03;94989.09;;;14.75;43.75
64668;BME280;51077;42.716;23.344;2023-03-25T05:53:30;94995.78;;;14.87;43.81
64668;BME280;51077;42.716;23.344;2023-03-25T05:55:58;94996.59;;;15.03;43.24
64668;BME280;51077;42.716;23.344;2023-03-25T05:58:23;94997.19;;;15.17;43.02
64668;BME280;51077;42.716;23.344;2023-03-25T06:00:49;94997.19;;;15.32;42.68
64668;BME280;51077;42.716;23.344;2023-03-25T06:03:15;94997.03;;;15.45;42.44
64668;BME280;51077;42.716;23.344;2023-03-25T06:05:42;94997.44;;;15.57;42.17
64668;BME280;51077;42.716;23.344;2023-03-25T06:08:08;94991.22;;;15.72;41.93
64668;BME280;51077;42.716;23.344;2023-03-25T06:10:33;94984.00;;;15.84;41.60
64668;BME280;51077;42.716;23.344;2023-03-25T06:12:58;94984.56;;;15.98;41.50
64668;BME280;51077;42.716;23.344;2023-03-25T06:15:24;94997.44;;;16.11;41.29
64668;BME280;51077;42.716;23.344;2023-03-25T06:17:58;94988.03;;;16.29;40.85
64668;BME280;51077;42.716;23.344;2023-03-25T06:20:24;94989.28;;;16.43;40.64
64668;BME280;51077;42.716;23.344;2023-03-25T06:22:50;94987.94;;;16.59;40.40
64668;BME280;51077;42.716;23.344;2023-03-25T06:25:17;94994.94;;;16.76;40.17
64668;BME280;51077;42.716;23.344;2023-03-25T06:27:45;95003.38;;;16.93;39.92
64668;BME280;51077;42.716;23.344;2023-03-25T06:30:13;94997.75;;;17.08;39.71
64668;BME280;51077;42.716;23.344;2023-03-25T06:32:39;95001.22;;;17.24;39.26
64668;BME280;51077;42.716;23.344;2023-03-25T06:35:06;95001.09;;;17.40;39.21
64668;BME280;51077;42.716;23.344;2023-03-25T06:37:33;94997.69;;;17.56;38.96
64668;BME280;51077;42.716;23.344;2023-03-25T06:39:59;95001.81;;;17.73;38.55
64668;BME280;51077;42.716;23.344;2023-03-25T06:42:27;95007.63;;;17.92;38.40
64668;BME280;51077;42.716;23.344;2023-03-25T06:44:54;95004.72;;;18.07;38.12
64668;BME280;51077;42.716;23.344;2023-03-25T06:47:20;94993.81;;;18.27;37.85
64668;BME280;51077;42.716;23.344;2023-03-25T06:49:46;94991.03;;;18.44;37.65
64668;BME280;51077;42.716;23.344;2023-03-25T06:52:12;94997.84;;;18.68;37.61
64668;BME280;51077;42.716;23.344;2023-03-25T06:54:37;95000.53;;;18.93;38.29
64668;BME280;51077;42.716;23.344;2023-03-25T06:57:04;95004.53;;;19.17;37.72
64668;BME280;51077;42.716;23.344;2023-03-25T06:59:29;95009.22;;;19.42;37.26
64668;BME280;51077;42.716;23.344;2023-03-25T07:01:55;95011.28;;;19.68;36.95
64668;BME280;51077;42.716;23.344;2023-03-25T07:04:20;95003.44;;;19.94;36.59
64668;BME280;51077;42.716;23.344;2023-03-25T07:06:46;95013.06;;;20.20;36.23
64668;BME280;51077;42.716;23.344;2023-03-25T07:09:11;95005.06;;;20.43;35.75
64668;BME280;51077;42.716;23.344;2023-03-25T07:11:37;95003.50;;;20.69;35.62
64668;BME280;51077;42.716;23.344;2023-03-25T07:14:02;94994.25;;;20.96;35.19
64668;BME280;51077;42.716;23.344;2023-03-25T07:16:27;94999.63;;;21.23;34.68
64668;BME280;51077;42.716;23.344;2023-03-25T07:18:53;95001.38;;;21.47;34.26
64668;BME280;51077;42.716;23.344;2023-03-25T07:21:23;94990.44;;;21.71;33.96
64668;BME280;51077;42.716;23.344;2023-03-25T07:23:49;94993.44;;;21.94;33.75
64668;BME280;51077;42.716;23.344;2023-03-25T07:26:16;94998.50;;;22.17;33.27
64668;BME280;51077;42.716;23.344;2023-03-25T07:28:41;95004.97;;;22.41;33.07
64668;BME280;51077;42.716;23.344;2023-03-25T07:31:11;95001.09;;;22.68;32.68
64668;BME280;51077;42.716;23.344;2023-03-25T07:33:37;94999.91;;;22.92;32.47
64668;BME280;51077;42.716;23.344;2023-03-25T07:36:04;94988.81;;;23.16;32.04
64668;BME280;51077;42.716;23.344;2023-03-25T07:38:31;94991.69;;;23.39;31.72
64668;BME280;51077;42.716;23.344;2023-03-25T07:40:56;94984.22;;;23.65;31.44
64668;BME280;51077;42.716;23.344;2023-03-25T07:43:22;94989.81;;;23.89;31.25
64668;BME280;51077;42.716;23.344;2023-03-25T07:45:47;94989.22;;;24.14;31.18
64668;BME280;51077;42.716;23.344;2023-03-25T07:48:13;94978.00;;;24.37;30.55
64668;BME280;51077;42.716;23.344;2023-03-25T07:50:41;94980.63;;;24.58;30.46
64668;BME280;51077;42.716;23.344;2023-03-25T07:53:06;94981.81;;;24.79;30.13
64668;BME280;51077;42.716;23.344;2023-03-25T07:55:32;94977.44;;;25.01;29.72
64668;BME280;51077;42.716;23.344;2023-03-25T07:57:57;94971.63;;;25.23;29.59
64668;BME280;51077;42.716;23.344;2023-03-25T08:00:26;94964.22;;;25.41;29.41
64668;BME280;51077;42.716;23.344;2023-03-25T08:02:52;94963.13;;;25.60;29.22
64668;BME280;51077;42.716;23.344;2023-03-25T08:05:17;94957.97;;;25.82;29.18
64668;BME280;51077;42.716;23.344;2023-03-25T08:07:49;94961.31;;;26.06;29.03
64668;BME280;51077;42.716;23.344;2023-03-25T08:10:16;94956.31;;;26.32;28.86
64668;BME280;51077;42.716;23.344;2023-03-25T08:12:43;94952.03;;;26.59;28.17
64668;BME280;51077;42.716;23.344;2023-03-25T08:15:09;94947.63;;;26.83;27.99
64668;BME280;51077;42.716;23.344;2023-03-25T08:17:36;94946.81;;;27.10;27.77
64668;BME280;51077;42.716;23.344;2023-03-25T08:20:02;94940.84;;;27.34;27.42
64668;BME280;51077;42.716;23.344;2023-03-25T08:22:30;94949.25;;;27.63;27.50
64668;BME280;51077;42.716;23.344;2023-03-25T08:24:55;94945.28;;;27.84;27.31
64668;BME280;51077;42.716;23.344;2023-03-25T08:27:21;94938.28;;;28.01;26.84
64668;BME280;51077;42.716;23.344;2023-03-25T08:29:46;94933.34;;;28.17;26.95
64668;BME280;51077;42.716;23.344;2023-03-25T08:32:27;94938.31;;;28.35;26.62
64668;BME280;51077;42.716;23.344;2023-03-25T08:34:53;94937.38;;;28.46;26.34
64668;BME280;51077;42.716;23.344;2023-03-25T08:37:19;94939.50;;;28.45;26.18
64668;BME280;51077;42.716;23.344;2023-03-25T08:39:46;94930.19;;;28.43;26.54
64668;BME280;51077;42.716;23.344;2023-03-25T08:42:15;94932.66;;;28.50;26.32
64668;BME280;51077;42.716;23.344;2023-03-25T08:44:41;94918.78;;;28.57;26.40
64668;BME280;51077;42.716;23.344;2023-03-25T08:47:06;94922.75;;;28.67;26.16
64668;BME280;51077;42.716;23.344;2023-03-25T08:49:32;94918.31;;;28.80;25.97
64668;BME280;51077;42.716;23.344;2023-03-25T08:51:58;94919.81;;;28.99;25.84
64668;BME280;51077;42.716;23.344;2023-03-25T08:54:24;94912.94;;;29.22;25.49
64668;BME280;51077;42.716;23.344;2023-03-25T08:56:51;94902.41;;;29.42;25.51
64668;BME280;51077;42.716;23.344;2023-03-25T08:59:16;94904.25;;;29.53;25.31
64668;BME280;51077;42.716;23.344;2023-03-25T09:01:42;94908.50;;;29.54;25.53
64668;BME280;51077;42.716;23.344;2023-03-25T09:04:09;94900.56;;;29.69;25.20
64668;BME280;51077;42.716;23.344;2023-03-25T09:06:34;94896.03;;;29.79;25.17
64668;BME280;51077;42.716;23.344;2023-03-25T09:09:00;94886.03;;;29.96;24.87
64668;BME280;51077;42.716;23.344;2023-03-25T09:11:26;94887.81;;;30.08;24.78
64668;BME280;51077;42.716;23.344;2023-03-25T09:13:52;94883.69;;;30.31;24.30
64668;BME280;51077;42.716;23.344;2023-03-25T09:16:17;94884.59;;;30.57;24.00
64668;BME280;51077;42.716;23.344;2023-03-25T09:18:42;94887.38;;;30.77;23.90
64668;BME280;51077;42.716;23.344;2023-03-25T09:21:08;94876.69;;;30.97;23.63
64668;BME280;51077;42.716;23.344;2023-03-25T09:23:33;94881.16;;;31.04;23.62
64668;BME280;51077;42.716;23.344;2023-03-25T09:26:00;94873.69;;;31.15;23.43
64668;BME280;51077;42.716;23.344;2023-03-25T09:28:27;94873.63;;;31.35;23.85
64668;BME280;51077;42.716;23.344;2023-03-25T09:30:53;94874.19;;;31.56;23.16
64668;BME280;51077;42.716;23.344;2023-03-25T09:33:19;94866.34;;;31.54;23.22
64668;BME280;51077;42.716;23.344;2023-03-25T09:35:44;94873.19;;;31.45;23.41
64668;BME280;51077;42.716;23.344;2023-03-25T09:38:11;94860.44;;;31.46;23.46
64668;BME280;51077;42.716;23.344;2023-03-25T09:40:40;94859.16;;;31.51;23.52
64668;BME280;51077;42.716;23.344;2023-03-25T09:43:43;94861.25;;;31.48;23.40
64668;BME280;51077;42.716;23.344;2023-03-25T09:46:15;94857.44;;;31.40;23.53
64668;BME280;51077;42.716;23.344;2023-03-25T09:48:45;94853.41;;;31.25;23.77
64668;BME280;51077;42.716;23.344;2023-03-25T09:51:29;94846.06;;;31.16;24.01
64668;BME280;51077;42.716;23.344;2023-03-25T09:54:11;94848.03;;;31.11;24.05
64668;BME280;51077;42.716;23.344;2023-03-25T09:56:40;94837.44;;;31.12;23.75
64668;BME280;51077;42.716;23.344;2023-03-25T09:59:20;94843.53;;;31.26;24.06
64668;BME280;51077;42.716;23.344;2023-03-25T10:04:56;94832.41;;;31.32;24.00
64668;BME280;51077;42.716;23.344;2023-03-25T10:10:23;94832.06;;;31.22;23.91
64668;BME280;51077;42.716;23.344;2023-03-25T10:19:43;94811.19;;;31.11;23.66
64668;BME280;51077;42.716;23.344;2023-03-25T10:25:24;94805.03;;;31.43;23.10
64668;BME280;51077;42.716;23.344;2023-03-25T10:27:51;94799.81;;;31.59;23.03
64668;BME280;51077;42.716;23.344;2023-03-25T10:30:22;94790.81;;;31.67;22.54
64668;BME280;51077;42.716;23.344;2023-03-25T10:33:01;94796.00;;;31.74;22.62
64668;BME280;51077;42.716;23.344;2023-03-25T10:35:30;94790.66;;;31.87;22.49
64668;BME280;51077;42.716;23.344;2023-03-25T10:38:01;94782.06;;;32.11;22.02
64668;BME280;51077;42.716;23.344;2023-03-25T10:40:38;94778.22;;;32.56;21.64
64668;BME280;51077;42.716;23.344;2023-03-25T10:46:17;94771.09;;;33.51;20.65
64668;BME280;51077;42.716;23.344;2023-03-25T10:48:40;94764.50;;;33.79;20.84
64668;BME280;51077;42.716;23.344;2023-03-25T10:51:09;94764.50;;;33.79;20.54
64668;BME280;51077;42.716;23.344;2023-03-25T10:53:35;94757.16;;;33.66;20.67
64668;BME280;51077;42.716;23.344;2023-03-25T10:56:06;94756.06;;;33.47;21.02
64668;BME280;51077;42.716;23.344;2023-03-25T10:58:36;94752.13;;;33.30;21.11
64668;BME280;51077;42.716;23.344;2023-03-25T11:01:10;94746.13;;;33.14;21.00
64668;BME280;51077;42.716;23.344;2023-03-25T11:03:38;94741.75;;;33.09;21.10
64668;BME280;51077;42.716;23.344;2023-03-25T11:06:05;94728.13;;;33.03;20.94
64668;BME280;51077;42.716;23.344;2023-03-25T11:08:31;94734.84;;;32.86;21.25
64668;BME280;51077;42.716;23.344;2023-03-25T11:10:56;94738.06;;;32.70;21.11
64668;BME280;51077;42.716;23.344;2023-03-25T11:13:26;94733.13;;;32.72;21.23
64668;BME280;51077;42.716;23.344;2023-03-25T11:15:53;94726.22;;;32.82;21.03
64668;BME280;51077;42.716;23.344;2023-03-25T11:20:52;94714.38;;;33.25;20.55
64668;BME280;51077;42.716;23.344;2023-03-25T11:23:34;94712.56;;;33.42;20.77
64668;BME280;51077;42.716;23.344;2023-03-25T11:26:04;94712.91;;;33.59;20.37
64668;BME280;51077;42.716;23.344;2023-03-25T11:28:40;94701.91;;;33.81;20.16
64668;BME280;51077;42.716;23.344;2023-03-25T11:31:10;94688.16;;;34.08;19.79
64668;BME280;51077;42.716;23.344;2023-03-25T11:33:36;94701.34;;;34.31;19.76
64668;BME280;51077;42.716;23.344;2023-03-25T11:36:20;94687.31;;;34.45;19.46
64668;BME280;51077;42.716;23.344;2023-03-25T11:38:49;94687.19;;;34.39;19.68
64668;BME280;51077;42.716;23.344;2023-03-25T11:41:15;94679.53;;;34.48;19.54
64668;BME280;51077;42.716;23.344;2023-03-25T11:43:41;94681.63;;;34.45;19.47
64668;BME280;51077;42.716;23.344;2023-03-25T11:46:09;94677.22;;;34.36;19.46
64668;BME280;51077;42.716;23.344;2023-03-25T11:48:40;94674.03;;;34.16;19.55
64668;BME280;51077;42.716;23.344;2023-03-25T11:51:16;94668.59;;;33.90;19.92
64668;BME280;51077;42.716;23.344;2023-03-25T11:54:01;94663.13;;;33.60;20.25
64668;BME280;51077;42.716;23.344;2023-03-25T11:56:39;94652.72;;;33.36;20.15
64668;BME280;51077;42.716;23.344;2023-03-25T11:59:18;94656.56;;;33.15;20.23
64668;BME280;51077;42.716;23.344;2023-03-25T12:01:47;94654.84;;;32.99;19.93
64668;BME280;51077;42.716;23.344;2023-03-25T12:04:20;94657.47;;;32.89;20.32
64668;BME280;51077;42.716;23.344;2023-03-25T12:06:53;94645.00;;;32.70;20.16
64668;BME280;51077;42.716;23.344;2023-03-25T12:09:19;94638.28;;;32.56;20.23
64668;BME280;51077;42.716;23.344;2023-03-25T12:19:53;94631.19;;;31.36;21.45
64668;BME280;51077;42.716;23.344;2023-03-25T12:22:57;94641.56;;;31.01;21.43
64668;BME280;51077;42.716;23.344;2023-03-25T12:25:40;94646.97;;;30.67;21.43
64668;BME280;51077;42.716;23.344;2023-03-25T12:31:39;94649.66;;;30.15;21.87
64668;BME280;51077;42.716;23.344;2023-03-25T12:47:58;94644.53;;;29.04;22.51
64668;BME280;51077;42.716;23.344;2023-03-25T12:55:51;94631.75;;;28.63;22.85
64668;BME280;51077;42.716;23.344;2023-03-25T13:01:46;94633.09;;;28.24;23.10
64668;BME280;51077;42.716;23.344;2023-03-25T13:07:21;94639.50;;;27.89;23.16
64668;BME280;51077;42.716;23.344;2023-03-25T13:13:06;94636.41;;;27.47;23.79
64668;BME280;51077;42.716;23.344;2023-03-25T13:15:43;94636.19;;;27.25;23.66
64668;BME280;51077;42.716;23.344;2023-03-25T13:23:20;94635.97;;;26.72;24.43
64668;BME280;51077;42.716;23.344;2023-03-25T13:26:02;94633.81;;;26.54;24.36
64668;BME280;51077;42.716;23.344;2023-03-25T13:28:44;94638.03;;;26.40;24.57
64668;BME280;51077;42.716;23.344;2023-03-25T13:31:15;94630.94;;;26.23;24.87
64668;BME280;51077;42.716;23.344;2023-03-25T13:36:36;94640.88;;;25.94;24.98
64668;BME280;51077;42.716;23.344;2023-03-25T13:39:12;94647.19;;;25.79;25.03
64668;BME280;51077;42.716;23.344;2023-03-25T13:41:47;94638.06;;;25.65;25.17
64668;BME280;51077;42.716;23.344;2023-03-25T13:46:56;94671.09;;;25.37;25.51
64668;BME280;51077;42.716;23.344;2023-03-25T13:49:36;94673.84;;;25.21;25.97
64668;BME280;51077;42.716;23.344;2023-03-25T13:52:05;94677.22;;;25.05;26.15
64668;BME280;51077;42.716;23.344;2023-03-25T13:54:40;94682.94;;;24.94;26.32
64668;BME280;51077;42.716;23.344;2023-03-25T14:14:13;94694.63;;;23.72;28.37
64668;BME280;51077;42.716;23.344;2023-03-25T14:16:45;94692.97;;;23.55;28.83
64668;BME280;51077;42.716;23.344;2023-03-25T14:19:14;94686.91;;;23.36;29.02
64668;BME280;51077;42.716;23.344;2023-03-25T14:21:43;94688.91;;;23.21;29.33
64668;BME280;51077;42.716;23.344;2023-03-25T14:24:27;94678.81;;;23.04;29.34
64668;BME280;51077;42.716;23.344;2023-03-25T14:27:02;94683.69;;;22.92;29.70
64668;BME280;51077;42.716;23.344;2023-03-25T14:29:40;94683.56;;;22.78;30.32
64668;BME280;51077;42.716;23.344;2023-03-25T14:34:42;94688.03;;;22.48;31.65
64668;BME280;51077;42.716;23.344;2023-03-25T14:39:45;94677.13;;;22.07;33.17
64668;BME280;51077;42.716;23.344;2023-03-25T14:42:23;94659.19;;;21.89;34.59
64668;BME280;51077;42.716;23.344;2023-03-25T14:44:51;94624.53;;;21.71;34.79
64668;BME280;51077;42.716;23.344;2023-03-25T14:52:51;94623.72;;;21.25;36.69
64668;BME280;51077;42.716;23.344;2023-03-25T14:55:25;94617.97;;;21.12;36.94
64668;BME280;51077;42.716;23.344;2023-03-25T14:57:57;94620.66;;;21.00;37.24
64668;BME280;51077;42.716;23.344;2023-03-25T15:00:39;94609.72;;;20.92;37.83
64668;BME280;51077;42.716;23.344;2023-03-25T15:03:13;94621.19;;;20.87;38.12
64668;BME280;51077;42.716;23.344;2023-03-25T15:05:44;94618.13;;;20.82;38.31
64668;BME280;51077;42.716;23.344;2023-03-25T15:08:33;94615.97;;;20.81;38.95
64668;BME280;51077;42.716;23.344;2023-03-25T15:11:11;94608.78;;;20.78;38.63
64668;BME280;51077;42.716;23.344;2023-03-25T15:21:16;94614.22;;;20.76;39.37
64668;BME280;51077;42.716;23.344;2023-03-25T15:23:47;94598.81;;;20.75;39.57
64668;BME280;51077;42.716;23.344;2023-03-25T15:26:25;94600.00;;;20.72;39.34
64668;BME280;51077;42.716;23.344;2023-03-25T15:31:53;94596.69;;;20.64;39.44
64668;BME280;51077;42.716;23.344;2023-03-25T15:55:08;94584.00;;;20.41;39.73